sensor_id;sensor_type;location;lat;lon;timestamp;P1;durP1;ratioP1;P2;durP2;ratioP2
3747;SDS011;1889;50.058;8.688;2023-12-20T00:01:23;5.92;;;4.35;;
3747;SDS011;1889;50.058;8.688;2023-12-20T00:03:53;5.00;;;4.22;;
3747;SDS011;1889;50.058;8.688;2023-12-20T00:06:23;6.30;;;4.22;;
3747;SDS011;1889;50.058;8.688;2023-12-20T00:08:53;6.05;;;4.30;;
3747;SDS011;1889;50.058;8.688;2023-12-20T00:11:22;6.35;;;4.47;;
3747;SDS011;1889;50.058;8.688;2023-12-20T00:13:52;4.90;;;3.87;;
3747;SDS011;1889;50.058;8.688;2023-12-20T00:16:22;5.40;;;3.92;;
3747;SDS011;1889;50.058;8.688;2023-12-20T00:18:52;5.70;;;4.40;;
3747;SDS011;1889;50.058;8.688;2023-12-20T00:21:21;5.15;;;3.87;;
3747;SDS011;1889;50.058;8.688;2023-12-20T00:23:51;5.75;;;4.50;;
3747;SDS011;1889;50.058;8.688;2023-12-20T00:26:21;5.58;;;4.05;;
3747;SDS011;1889;50.058;8.688;2023-12-20T00:28:51;5.55;;;3.67;;
3747;SDS011;1889;50.058;8.688;2023-12-20T00:34:12;5.45;;;4.10;;
3747;SDS011;1889;50.058;8.688;2023-12-20T00:36:42;4.60;;;3.45;;
3747;SDS011;1889;50.058;8.688;2023-12-20T00:39:12;3.62;;;3.30;;
3747;SDS011;1889;50.058;8.688;2023-12-20T00:41:42;3.85;;;3.40;;
3747;SDS011;1889;50.058;8.688;2023-12-20T00:44:11;4.60;;;3.35;;
3747;SDS011;1889;50.058;8.688;2023-12-20T00:46:41;3.35;;;3.05;;
3747;SDS011;1889;50.058;8.688;2023-12-20T00:49:10;3.10;;;2.75;;
3747;SDS011;1889;50.058;8.688;2023-12-20T00:51:40;3.60;;;3.12;;
3747;SDS011;1889;50.058;8.688;2023-12-20T00:54:10;4.28;;;3.80;;
3747;SDS011;1889;50.058;8.688;2023-12-20T00:56:39;4.05;;;3.55;;
3747;SDS011;1889;50.058;8.688;2023-12-20T00:59:09;4.17;;;3.75;;
3747;SDS011;1889;50.058;8.688;2023-12-20T01:01:39;3.52;;;3.20;;
3747;SDS011;1889;50.058;8.688;2023-12-20T01:04:09;4.03;;;3.45;;
3747;SDS011;1889;50.058;8.688;2023-12-20T01:06:42;4.75;;;3.33;;
3747;SDS011;1889;50.058;8.688;2023-12-20T01:09:11;4.12;;;3.35;;
3747;SDS011;1889;50.058;8.688;2023-12-20T01:11:42;3.47;;;3.17;;
3747;SDS011;1889;50.058;8.688;2023-12-20T01:14:12;3.90;;;3.50;;
3747;SDS011;1889;50.058;8.688;2023-12-20T01:16:44;3.80;;;3.30;;
3747;SDS011;1889;50.058;8.688;2023-12-20T01:19:17;4.37;;;3.50;;
3747;SDS011;1889;50.058;8.688;2023-12-20T01:21:46;3.27;;;3.00;;
3747;SDS011;1889;50.058;8.688;2023-12-20T01:24:16;4.00;;;3.58;;
3747;SDS011;1889;50.058;8.688;2023-12-20T01:26:53;5.00;;;3.77;;
3747;SDS011;1889;50.058;8.688;2023-12-20T01:29:19;3.62;;;3.30;;
3747;SDS011;1889;50.058;8.688;2023-12-20T01:31:56;3.70;;;2.77;;
3747;SDS011;1889;50.058;8.688;2023-12-20T01:34:27;4.12;;;2.98;;
3747;SDS011;1889;50.058;8.688;2023-12-20T01:36:57;3.50;;;2.92;;
3747;SDS011;1889;50.058;8.688;2023-12-20T01:39:27;4.40;;;2.90;;
3747;SDS011;1889;50.058;8.688;2023-12-20T01:41:57;3.90;;;2.83;;
3747;SDS011;1889;50.058;8.688;2023-12-20T01:44:30;5.75;;;3.02;;
3747;SDS011;1889;50.058;8.688;2023-12-20T01:47:00;4.25;;;2.58;;
3747;SDS011;1889;50.058;8.688;2023-12-20T01:49:29;3.33;;;2.62;;
3747;SDS011;1889;50.058;8.688;2023-12-20T01:51:59;3.20;;;2.90;;
3747;SDS011;1889;50.058;8.688;2023-12-20T01:54:32;3.25;;;2.67;;
3747;SDS011;1889;50.058;8.688;2023-12-20T01:57:05;3.10;;;2.70;;
3747;SDS011;1889;50.058;8.688;2023-12-20T02:02:13;5.08;;;2.70;;
3747;SDS011;1889;50.058;8.688;2023-12-20T02:04:43;3.00;;;2.70;;
3747;SDS011;1889;50.058;8.688;2023-12-20T02:07:13;3.35;;;2.47;;
3747;SDS011;1889;50.058;8.688;2023-12-20T02:09:43;2.50;;;2.15;;
3747;SDS011;1889;50.058;8.688;2023-12-20T02:12:12;3.58;;;2.45;;
3747;SDS011;1889;50.058;8.688;2023-12-20T02:14:42;2.60;;;2.40;;
3747;SDS011;1889;50.058;8.688;2023-12-20T02:17:12;2.08;;;1.87;;
3747;SDS011;1889;50.058;8.688;2023-12-20T02:19:45;3.30;;;3.00;;
3747;SDS011;1889;50.058;8.688;2023-12-20T02:22:14;2.65;;;2.45;;
3747;SDS011;1889;50.058;8.688;2023-12-20T02:24:43;2.40;;;2.20;;
3747;SDS011;1889;50.058;8.688;2023-12-20T02:27:13;2.70;;;2.42;;
3747;SDS011;1889;50.058;8.688;2023-12-20T02:29:46;2.08;;;1.98;;
3747;SDS011;1889;50.058;8.688;2023-12-20T02:32:16;1.90;;;1.80;;
3747;SDS011;1889;50.058;8.688;2023-12-20T02:34:47;2.30;;;2.10;;
3747;SDS011;1889;50.058;8.688;2023-12-20T02:37:17;3.25;;;2.42;;
3747;SDS011;1889;50.058;8.688;2023-12-20T02:39:46;2.67;;;2.47;;
3747;SDS011;1889;50.058;8.688;2023-12-20T02:42:15;2.25;;;2.02;;
3747;SDS011;1889;50.058;8.688;2023-12-20T02:44:45;3.52;;;1.95;;
3747;SDS011;1889;50.058;8.688;2023-12-20T02:50:00;2.50;;;2.30;;
3747;SDS011;1889;50.058;8.688;2023-12-20T02:52:30;3.75;;;2.40;;
3747;SDS011;1889;50.058;8.688;2023-12-20T02:54:59;2.45;;;2.20;;
3747;SDS011;1889;50.058;8.688;2023-12-20T02:57:28;3.30;;;2.35;;
3747;SDS011;1889;50.058;8.688;2023-12-20T02:59:58;2.50;;;2.30;;
3747;SDS011;1889;50.058;8.688;2023-12-20T03:02:27;2.37;;;2.15;;
3747;SDS011;1889;50.058;8.688;2023-12-20T03:04:57;2.40;;;2.20;;
3747;SDS011;1889;50.058;8.688;2023-12-20T03:07:27;2.87;;;2.17;;
3747;SDS011;1889;50.058;8.688;2023-12-20T03:09:57;2.50;;;2.00;;
3747;SDS011;1889;50.058;8.688;2023-12-20T03:12:26;3.20;;;2.50;;
3747;SDS011;1889;50.058;8.688;2023-12-20T03:14:55;2.58;;;2.37;;
3747;SDS011;1889;50.058;8.688;2023-12-20T03:17:25;2.50;;;2.27;;
3747;SDS011;1889;50.058;8.688;2023-12-20T03:19:54;2.15;;;1.90;;
3747;SDS011;1889;50.058;8.688;2023-12-20T03:22:23;2.17;;;1.98;;
3747;SDS011;1889;50.058;8.688;2023-12-20T03:24:53;2.08;;;1.70;;
3747;SDS011;1889;50.058;8.688;2023-12-20T03:27:22;2.30;;;2.00;;
3747;SDS011;1889;50.058;8.688;2023-12-20T03:29:51;1.65;;;1.55;;
3747;SDS011;1889;50.058;8.688;2023-12-20T03:32:21;1.90;;;1.80;;
3747;SDS011;1889;50.058;8.688;2023-12-20T03:34:50;2.62;;;1.52;;
3747;SDS011;1889;50.058;8.688;2023-12-20T03:37:19;1.62;;;1.52;;
3747;SDS011;1889;50.058;8.688;2023-12-20T03:39:49;2.70;;;1.80;;
3747;SDS011;1889;50.058;8.688;2023-12-20T03:42:19;1.80;;;1.65;;
3747;SDS011;1889;50.058;8.688;2023-12-20T03:44:48;1.65;;;1.55;;
3747;SDS011;1889;50.058;8.688;2023-12-20T03:47:17;1.85;;;1.75;;
3747;SDS011;1889;50.058;8.688;2023-12-20T03:49:47;2.95;;;2.05;;
3747;SDS011;1889;50.058;8.688;2023-12-20T03:52:16;3.00;;;2.02;;
3747;SDS011;1889;50.058;8.688;2023-12-20T03:54:45;2.00;;;1.90;;
3747;SDS011;1889;50.058;8.688;2023-12-20T03:57:15;2.17;;;1.98;;
3747;SDS011;1889;50.058;8.688;2023-12-20T03:59:44;1.87;;;1.77;;
3747;SDS011;1889;50.058;8.688;2023-12-20T04:02:14;2.02;;;1.87;;
3747;SDS011;1889;50.058;8.688;2023-12-20T04:04:45;1.95;;;1.75;;
3747;SDS011;1889;50.058;8.688;2023-12-20T04:07:14;2.12;;;1.92;;
3747;SDS011;1889;50.058;8.688;2023-12-20T04:09:44;2.37;;;2.17;;
3747;SDS011;1889;50.058;8.688;2023-12-20T04:12:14;2.42;;;2.22;;
3747;SDS011;1889;50.058;8.688;2023-12-20T04:14:43;2.60;;;2.37;;
3747;SDS011;1889;50.058;8.688;2023-12-20T04:17:12;2.10;;;1.90;;
3747;SDS011;1889;50.058;8.688;2023-12-20T04:19:43;4.12;;;2.40;;
3747;SDS011;1889;50.058;8.688;2023-12-20T04:22:12;2.12;;;1.67;;
3747;SDS011;1889;50.058;8.688;2023-12-20T04:24:42;1.90;;;1.80;;
3747;SDS011;1889;50.058;8.688;2023-12-20T04:27:11;1.80;;;1.70;;
3747;SDS011;1889;50.058;8.688;2023-12-20T04:29:41;2.15;;;1.82;;
3747;SDS011;1889;50.058;8.688;2023-12-20T04:32:10;1.80;;;1.70;;
3747;SDS011;1889;50.058;8.688;2023-12-20T04:34:39;2.00;;;1.80;;
3747;SDS011;1889;50.058;8.688;2023-12-20T04:37:09;1.72;;;1.62;;
3747;SDS011;1889;50.058;8.688;2023-12-20T04:39:38;2.27;;;1.80;;
3747;SDS011;1889;50.058;8.688;2023-12-20T04:42:09;5.58;;;1.70;;
3747;SDS011;1889;50.058;8.688;2023-12-20T04:44:38;1.80;;;1.67;;
3747;SDS011;1889;50.058;8.688;2023-12-20T04:47:07;1.87;;;1.57;;
3747;SDS011;1889;50.058;8.688;2023-12-20T04:49:37;3.10;;;1.72;;
3747;SDS011;1889;50.058;8.688;2023-12-20T04:52:06;1.67;;;1.57;;
3747;SDS011;1889;50.058;8.688;2023-12-20T04:54:35;1.72;;;1.42;;
3747;SDS011;1889;50.058;8.688;2023-12-20T04:57:05;1.95;;;1.85;;
3747;SDS011;1889;50.058;8.688;2023-12-20T04:59:34;2.10;;;1.80;;
3747;SDS011;1889;50.058;8.688;2023-12-20T05:02:03;2.15;;;2.05;;
3747;SDS011;1889;50.058;8.688;2023-12-20T05:04:32;4.85;;;1.90;;
3747;SDS011;1889;50.058;8.688;2023-12-20T05:07:02;2.10;;;1.90;;
3747;SDS011;1889;50.058;8.688;2023-12-20T05:09:32;2.20;;;2.00;;
3747;SDS011;1889;50.058;8.688;2023-12-20T05:12:01;2.05;;;1.85;;
3747;SDS011;1889;50.058;8.688;2023-12-20T05:14:31;2.50;;;2.10;;
3747;SDS011;1889;50.058;8.688;2023-12-20T05:17:00;2.22;;;1.80;;
3747;SDS011;1889;50.058;8.688;2023-12-20T05:19:30;1.80;;;1.70;;
3747;SDS011;1889;50.058;8.688;2023-12-20T05:22:01;2.25;;;2.05;;
3747;SDS011;1889;50.058;8.688;2023-12-20T05:24:31;2.35;;;2.00;;
3747;SDS011;1889;50.058;8.688;2023-12-20T05:27:00;2.35;;;2.15;;
3747;SDS011;1889;50.058;8.688;2023-12-20T05:29:29;1.60;;;1.50;;
3747;SDS011;1889;50.058;8.688;2023-12-20T05:31:59;1.65;;;1.55;;
3747;SDS011;1889;50.058;8.688;2023-12-20T05:34:28;2.10;;;1.90;;
3747;SDS011;1889;50.058;8.688;2023-12-20T05:36:57;1.70;;;1.60;;
3747;SDS011;1889;50.058;8.688;2023-12-20T05:39:27;3.10;;;2.35;;
3747;SDS011;1889;50.058;8.688;2023-12-20T05:41:58;3.58;;;1.92;;
3747;SDS011;1889;50.058;8.688;2023-12-20T05:44:27;1.80;;;1.70;;
3747;SDS011;1889;50.058;8.688;2023-12-20T05:46:56;2.42;;;1.90;;
3747;SDS011;1889;50.058;8.688;2023-12-20T05:49:26;1.72;;;1.62;;
3747;SDS011;1889;50.058;8.688;2023-12-20T05:51:55;1.85;;;1.65;;
3747;SDS011;1889;50.058;8.688;2023-12-20T05:54:24;2.20;;;1.67;;
3747;SDS011;1889;50.058;8.688;2023-12-20T05:56:54;2.65;;;1.67;;
3747;SDS011;1889;50.058;8.688;2023-12-20T05:59:23;2.47;;;1.92;;
3747;SDS011;1889;50.058;8.688;2023-12-20T06:01:52;2.15;;;1.80;;
3747;SDS011;1889;50.058;8.688;2023-12-20T06:04:21;4.35;;;1.95;;
3747;SDS011;1889;50.058;8.688;2023-12-20T06:06:51;1.90;;;1.65;;
3747;SDS011;1889;50.058;8.688;2023-12-20T06:09:20;5.20;;;1.85;;
3747;SDS011;1889;50.058;8.688;2023-12-20T06:11:49;3.22;;;1.70;;
3747;SDS011;1889;50.058;8.688;2023-12-20T06:14:19;3.83;;;1.98;;
3747;SDS011;1889;50.058;8.688;2023-12-20T06:16:48;5.33;;;1.70;;
3747;SDS011;1889;50.058;8.688;2023-12-20T06:19:17;3.70;;;1.70;;
3747;SDS011;1889;50.058;8.688;2023-12-20T06:21:47;3.87;;;1.50;;
3747;SDS011;1889;50.058;8.688;2023-12-20T06:24:16;4.33;;;1.60;;
3747;SDS011;1889;50.058;8.688;2023-12-20T06:26:45;3.10;;;1.45;;
3747;SDS011;1889;50.058;8.688;2023-12-20T06:29:15;4.75;;;2.00;;
3747;SDS011;1889;50.058;8.688;2023-12-20T06:31:44;3.25;;;1.45;;
3747;SDS011;1889;50.058;8.688;2023-12-20T06:34:13;5.12;;;1.70;;
3747;SDS011;1889;50.058;8.688;2023-12-20T06:36:43;3.55;;;1.67;;
3747;SDS011;1889;50.058;8.688;2023-12-20T06:39:12;5.83;;;1.60;;
3747;SDS011;1889;50.058;8.688;2023-12-20T06:41:41;5.15;;;1.60;;
3747;SDS011;1889;50.058;8.688;2023-12-20T06:44:11;2.87;;;1.42;;
3747;SDS011;1889;50.058;8.688;2023-12-20T06:46:40;4.83;;;1.57;;
3747;SDS011;1889;50.058;8.688;2023-12-20T06:49:09;3.77;;;1.60;;
3747;SDS011;1889;50.058;8.688;2023-12-20T06:51:39;3.58;;;1.70;;
3747;SDS011;1889;50.058;8.688;2023-12-20T06:54:08;5.20;;;1.77;;
3747;SDS011;1889;50.058;8.688;2023-12-20T06:56:38;5.72;;;1.90;;
3747;SDS011;1889;50.058;8.688;2023-12-20T06:59:08;2.72;;;1.95;;
3747;SDS011;1889;50.058;8.688;2023-12-20T07:01:37;3.12;;;1.30;;
3747;SDS011;1889;50.058;8.688;2023-12-20T07:04:07;3.05;;;1.82;;
3747;SDS011;1889;50.058;8.688;2023-12-20T07:06:36;4.90;;;1.50;;
3747;SDS011;1889;50.058;8.688;2023-12-20T07:09:06;2.00;;;1.47;;
3747;SDS011;1889;50.058;8.688;2023-12-20T07:11:35;2.45;;;1.70;;
3747;SDS011;1889;50.058;8.688;2023-12-20T07:14:04;3.85;;;1.45;;
3747;SDS011;1889;50.058;8.688;2023-12-20T07:16:34;3.30;;;1.35;;
3747;SDS011;1889;50.058;8.688;2023-12-20T07:19:03;4.12;;;1.27;;
3747;SDS011;1889;50.058;8.688;2023-12-20T07:21:32;2.25;;;1.47;;
3747;SDS011;1889;50.058;8.688;2023-12-20T07:24:02;4.90;;;1.60;;
3747;SDS011;1889;50.058;8.688;2023-12-20T07:26:31;1.45;;;1.22;;
3747;SDS011;1889;50.058;8.688;2023-12-20T07:29:01;8.15;;;1.57;;
3747;SDS011;1889;50.058;8.688;2023-12-20T07:31:31;3.90;;;1.30;;
3747;SDS011;1889;50.058;8.688;2023-12-20T07:34:00;2.70;;;1.40;;
3747;SDS011;1889;50.058;8.688;2023-12-20T07:36:30;2.45;;;1.50;;
3747;SDS011;1889;50.058;8.688;2023-12-20T07:38:59;3.08;;;1.32;;
3747;SDS011;1889;50.058;8.688;2023-12-20T07:41:28;4.65;;;1.32;;
3747;SDS011;1889;50.058;8.688;2023-12-20T07:43:58;3.80;;;1.52;;
3747;SDS011;1889;50.058;8.688;2023-12-20T07:46:27;4.85;;;1.62;;
3747;SDS011;1889;50.058;8.688;2023-12-20T07:48:56;5.58;;;1.80;;
3747;SDS011;1889;50.058;8.688;2023-12-20T07:51:26;2.77;;;1.22;;
3747;SDS011;1889;50.058;8.688;2023-12-20T07:53:55;1.95;;;1.00;;
3747;SDS011;1889;50.058;8.688;2023-12-20T07:56:24;2.20;;;1.45;;
3747;SDS011;1889;50.058;8.688;2023-12-20T07:58:54;5.58;;;1.87;;
3747;SDS011;1889;50.058;8.688;2023-12-20T08:01:23;3.58;;;1.40;;
3747;SDS011;1889;50.058;8.688;2023-12-20T08:03:52;3.02;;;1.52;;
3747;SDS011;1889;50.058;8.688;2023-12-20T08:06:22;6.90;;;1.45;;
3747;SDS011;1889;50.058;8.688;2023-12-20T08:08:51;3.77;;;1.40;;
3747;SDS011;1889;50.058;8.688;2023-12-20T08:11:20;7.00;;;1.75;;
3747;SDS011;1889;50.058;8.688;2023-12-20T08:13:50;3.15;;;1.60;;
3747;SDS011;1889;50.058;8.688;2023-12-20T08:16:19;3.85;;;2.08;;
3747;SDS011;1889;50.058;8.688;2023-12-20T08:18:48;6.78;;;1.80;;
3747;SDS011;1889;50.058;8.688;2023-12-20T08:21:18;3.52;;;1.30;;
3747;SDS011;1889;50.058;8.688;2023-12-20T08:23:49;2.72;;;1.45;;
3747;SDS011;1889;50.058;8.688;2023-12-20T08:26:19;3.87;;;1.32;;
3747;SDS011;1889;50.058;8.688;2023-12-20T08:28:51;2.75;;;1.32;;
3747;SDS011;1889;50.058;8.688;2023-12-20T08:31:20;4.35;;;1.45;;
3747;SDS011;1889;50.058;8.688;2023-12-20T08:33:50;2.72;;;1.40;;
3747;SDS011;1889;50.058;8.688;2023-12-20T08:36:20;4.70;;;1.50;;
3747;SDS011;1889;50.058;8.688;2023-12-20T08:38:50;5.15;;;1.52;;
3747;SDS011;1889;50.058;8.688;2023-12-20T08:41:20;2.35;;;1.50;;
3747;SDS011;1889;50.058;8.688;2023-12-20T08:43:49;6.40;;;2.05;;
3747;SDS011;1889;50.058;8.688;2023-12-20T08:46:18;3.33;;;1.62;;
3747;SDS011;1889;50.058;8.688;2023-12-20T08:48:48;4.55;;;1.70;;
3747;SDS011;1889;50.058;8.688;2023-12-20T08:51:17;5.17;;;1.60;;
3747;SDS011;1889;50.058;8.688;2023-12-20T08:53:46;5.70;;;1.67;;
3747;SDS011;1889;50.058;8.688;2023-12-20T08:56:16;4.95;;;1.12;;
3747;SDS011;1889;50.058;8.688;2023-12-20T08:58:46;3.17;;;1.35;;
3747;SDS011;1889;50.058;8.688;2023-12-20T09:01:16;5.37;;;1.45;;
3747;SDS011;1889;50.058;8.688;2023-12-20T09:03:45;4.70;;;1.67;;
3747;SDS011;1889;50.058;8.688;2023-12-20T09:06:14;3.20;;;1.05;;
3747;SDS011;1889;50.058;8.688;2023-12-20T09:08:44;1.75;;;1.00;;
3747;SDS011;1889;50.058;8.688;2023-12-20T09:11:13;4.85;;;1.37;;
3747;SDS011;1889;50.058;8.688;2023-12-20T09:13:42;4.87;;;1.12;;
3747;SDS011;1889;50.058;8.688;2023-12-20T09:16:12;2.50;;;1.10;;
3747;SDS011;1889;50.058;8.688;2023-12-20T09:18:43;4.37;;;1.52;;
3747;SDS011;1889;50.058;8.688;2023-12-20T09:21:12;6.00;;;1.60;;
3747;SDS011;1889;50.058;8.688;2023-12-20T09:23:41;5.92;;;1.40;;
3747;SDS011;1889;50.058;8.688;2023-12-20T09:26:11;4.45;;;2.45;;
3747;SDS011;1889;50.058;8.688;2023-12-20T09:28:40;3.75;;;1.47;;
3747;SDS011;1889;50.058;8.688;2023-12-20T09:31:09;4.60;;;1.45;;
3747;SDS011;1889;50.058;8.688;2023-12-20T09:33:39;4.67;;;1.20;;
3747;SDS011;1889;50.058;8.688;2023-12-20T09:36:08;3.47;;;1.50;;
3747;SDS011;1889;50.058;8.688;2023-12-20T09:38:37;3.70;;;1.32;;
3747;SDS011;1889;50.058;8.688;2023-12-20T09:41:07;2.35;;;1.17;;
3747;SDS011;1889;50.058;8.688;2023-12-20T09:43:37;3.95;;;1.77;;
3747;SDS011;1889;50.058;8.688;2023-12-20T09:46:07;3.45;;;1.50;;
3747;SDS011;1889;50.058;8.688;2023-12-20T09:48:39;1.65;;;1.42;;
3747;SDS011;1889;50.058;8.688;2023-12-20T09:51:09;3.45;;;1.10;;
3747;SDS011;1889;50.058;8.688;2023-12-20T09:53:39;3.02;;;1.50;;
3747;SDS011;1889;50.058;8.688;2023-12-20T09:56:10;3.85;;;1.75;;
3747;SDS011;1889;50.058;8.688;2023-12-20T09:58:40;4.22;;;1.77;;
3747;SDS011;1889;50.058;8.688;2023-12-20T10:01:09;2.92;;;1.50;;
3747;SDS011;1889;50.058;8.688;2023-12-20T10:03:40;3.77;;;1.40;;
3747;SDS011;1889;50.058;8.688;2023-12-20T10:06:10;5.92;;;1.85;;
3747;SDS011;1889;50.058;8.688;2023-12-20T10:08:40;4.62;;;1.65;;
3747;SDS011;1889;50.058;8.688;2023-12-20T10:11:09;7.28;;;1.67;;
3747;SDS011;1889;50.058;8.688;2023-12-20T10:13:39;4.55;;;1.42;;
3747;SDS011;1889;50.058;8.688;2023-12-20T10:16:09;4.53;;;1.70;;
3747;SDS011;1889;50.058;8.688;2023-12-20T10:18:39;4.15;;;1.50;;
3747;SDS011;1889;50.058;8.688;2023-12-20T10:21:08;3.27;;;1.50;;
3747;SDS011;1889;50.058;8.688;2023-12-20T10:23:39;3.58;;;1.47;;
3747;SDS011;1889;50.058;8.688;2023-12-20T10:26:08;3.58;;;1.62;;
3747;SDS011;1889;50.058;8.688;2023-12-20T10:28:39;4.83;;;1.57;;
3747;SDS011;1889;50.058;8.688;2023-12-20T10:31:09;5.20;;;1.85;;
3747;SDS011;1889;50.058;8.688;2023-12-20T10:33:38;6.15;;;1.87;;
3747;SDS011;1889;50.058;8.688;2023-12-20T10:36:09;7.47;;;1.60;;
3747;SDS011;1889;50.058;8.688;2023-12-20T10:38:40;4.45;;;1.87;;
3747;SDS011;1889;50.058;8.688;2023-12-20T10:41:12;5.58;;;1.75;;
3747;SDS011;1889;50.058;8.688;2023-12-20T10:43:44;5.95;;;1.62;;
3747;SDS011;1889;50.058;8.688;2023-12-20T10:46:15;6.40;;;1.85;;
3747;SDS011;1889;50.058;8.688;2023-12-20T10:48:46;5.75;;;1.77;;
3747;SDS011;1889;50.058;8.688;2023-12-20T10:51:17;5.05;;;1.77;;
3747;SDS011;1889;50.058;8.688;2023-12-20T10:53:47;4.67;;;1.40;;
3747;SDS011;1889;50.058;8.688;2023-12-20T10:56:17;4.72;;;1.50;;
3747;SDS011;1889;50.058;8.688;2023-12-20T10:58:50;3.55;;;1.62;;
3747;SDS011;1889;50.058;8.688;2023-12-20T11:01:20;4.92;;;1.40;;
3747;SDS011;1889;50.058;8.688;2023-12-20T11:03:51;6.17;;;2.37;;
3747;SDS011;1889;50.058;8.688;2023-12-20T11:06:26;3.77;;;1.72;;
3747;SDS011;1889;50.058;8.688;2023-12-20T11:09:25;3.30;;;1.62;;
3747;SDS011;1889;50.058;8.688;2023-12-20T11:11:59;3.70;;;2.00;;
3747;SDS011;1889;50.058;8.688;2023-12-20T11:14:35;6.22;;;1.70;;
3747;SDS011;1889;50.058;8.688;2023-12-20T11:17:10;5.60;;;1.98;;
3747;SDS011;1889;50.058;8.688;2023-12-20T11:22:32;4.83;;;1.60;;
3747;SDS011;1889;50.058;8.688;2023-12-20T11:25:03;2.47;;;1.50;;
3747;SDS011;1889;50.058;8.688;2023-12-20T11:27:36;3.12;;;1.30;;
3747;SDS011;1889;50.058;8.688;2023-12-20T11:30:13;3.65;;;1.50;;
3747;SDS011;1889;50.058;8.688;2023-12-20T11:32:45;4.40;;;1.50;;
3747;SDS011;1889;50.058;8.688;2023-12-20T11:37:48;7.17;;;1.90;;
3747;SDS011;1889;50.058;8.688;2023-12-20T11:40:19;6.37;;;2.30;;
3747;SDS011;1889;50.058;8.688;2023-12-20T11:42:50;9.78;;;2.35;;
3747;SDS011;1889;50.058;8.688;2023-12-20T11:45:22;6.37;;;1.80;;
3747;SDS011;1889;50.058;8.688;2023-12-20T11:47:53;5.70;;;1.65;;
3747;SDS011;1889;50.058;8.688;2023-12-20T11:50:23;5.85;;;1.30;;
3747;SDS011;1889;50.058;8.688;2023-12-20T11:52:53;6.90;;;1.70;;
3747;SDS011;1889;50.058;8.688;2023-12-20T11:55:23;3.10;;;1.45;;
3747;SDS011;1889;50.058;8.688;2023-12-20T11:57:52;4.42;;;2.17;;
3747;SDS011;1889;50.058;8.688;2023-12-20T12:00:22;3.85;;;1.47;;
3747;SDS011;1889;50.058;8.688;2023-12-20T12:02:57;3.30;;;1.25;;
3747;SDS011;1889;50.058;8.688;2023-12-20T12:05:30;5.00;;;1.42;;
3747;SDS011;1889;50.058;8.688;2023-12-20T12:07:59;2.67;;;1.40;;
3747;SDS011;1889;50.058;8.688;2023-12-20T12:10:29;5.37;;;1.30;;
3747;SDS011;1889;50.058;8.688;2023-12-20T12:12:59;3.22;;;1.47;;
3747;SDS011;1889;50.058;8.688;2023-12-20T12:15:29;7.53;;;1.92;;
3747;SDS011;1889;50.058;8.688;2023-12-20T12:17:58;6.37;;;1.70;;
3747;SDS011;1889;50.058;8.688;2023-12-20T12:20:27;4.70;;;1.50;;
3747;SDS011;1889;50.058;8.688;2023-12-20T12:22:57;3.33;;;1.77;;
3747;SDS011;1889;50.058;8.688;2023-12-20T12:25:28;4.00;;;1.47;;
3747;SDS011;1889;50.058;8.688;2023-12-20T12:27:59;5.40;;;1.70;;
3747;SDS011;1889;50.058;8.688;2023-12-20T12:30:29;6.55;;;1.52;;
3747;SDS011;1889;50.058;8.688;2023-12-20T12:32:58;4.72;;;1.50;;
3747;SDS011;1889;50.058;8.688;2023-12-20T12:35:27;4.35;;;1.87;;
3747;SDS011;1889;50.058;8.688;2023-12-20T12:37:58;4.87;;;1.55;;
3747;SDS011;1889;50.058;8.688;2023-12-20T12:40:29;5.92;;;1.80;;
3747;SDS011;1889;50.058;8.688;2023-12-20T12:43:02;3.05;;;1.60;;
3747;SDS011;1889;50.058;8.688;2023-12-20T12:45:33;6.30;;;1.77;;
3747;SDS011;1889;50.058;8.688;2023-12-20T12:48:02;5.60;;;1.60;;
3747;SDS011;1889;50.058;8.688;2023-12-20T12:50:32;4.55;;;1.32;;
3747;SDS011;1889;50.058;8.688;2023-12-20T12:53:01;2.25;;;1.20;;
3747;SDS011;1889;50.058;8.688;2023-12-20T12:55:31;6.72;;;1.70;;
3747;SDS011;1889;50.058;8.688;2023-12-20T12:58:01;3.17;;;1.35;;
3747;SDS011;1889;50.058;8.688;2023-12-20T13:00:30;5.00;;;1.65;;
3747;SDS011;1889;50.058;8.688;2023-12-20T13:02:59;4.97;;;1.40;;
3747;SDS011;1889;50.058;8.688;2023-12-20T13:05:29;4.03;;;1.52;;
3747;SDS011;1889;50.058;8.688;2023-12-20T13:07:59;4.08;;;1.40;;
3747;SDS011;1889;50.058;8.688;2023-12-20T13:10:28;2.80;;;1.40;;
3747;SDS011;1889;50.058;8.688;2023-12-20T13:12:57;5.75;;;1.50;;
3747;SDS011;1889;50.058;8.688;2023-12-20T13:15:27;4.30;;;1.55;;
3747;SDS011;1889;50.058;8.688;2023-12-20T13:17:56;3.08;;;1.35;;
3747;SDS011;1889;50.058;8.688;2023-12-20T13:20:25;5.22;;;1.60;;
3747;SDS011;1889;50.058;8.688;2023-12-20T13:22:55;1.85;;;1.10;;
3747;SDS011;1889;50.058;8.688;2023-12-20T13:25:24;3.00;;;1.30;;
3747;SDS011;1889;50.058;8.688;2023-12-20T13:27:53;5.53;;;1.55;;
3747;SDS011;1889;50.058;8.688;2023-12-20T13:30:22;4.92;;;1.62;;
3747;SDS011;1889;50.058;8.688;2023-12-20T13:32:52;6.28;;;1.55;;
3747;SDS011;1889;50.058;8.688;2023-12-20T13:35:21;4.90;;;1.75;;
3747;SDS011;1889;50.058;8.688;2023-12-20T13:37:50;4.67;;;1.80;;
3747;SDS011;1889;50.058;8.688;2023-12-20T13:40:20;4.45;;;1.80;;
3747;SDS011;1889;50.058;8.688;2023-12-20T13:42:49;5.28;;;1.42;;
3747;SDS011;1889;50.058;8.688;2023-12-20T13:45:19;4.37;;;1.50;;
3747;SDS011;1889;50.058;8.688;2023-12-20T13:47:48;6.80;;;1.85;;
3747;SDS011;1889;50.058;8.688;2023-12-20T13:50:17;5.08;;;1.77;;
3747;SDS011;1889;50.058;8.688;2023-12-20T13:52:46;4.53;;;1.60;;
3747;SDS011;1889;50.058;8.688;2023-12-20T13:55:16;3.90;;;2.05;;
3747;SDS011;1889;50.058;8.688;2023-12-20T13:57:47;1.90;;;1.42;;
3747;SDS011;1889;50.058;8.688;2023-12-20T14:00:17;3.40;;;1.40;;
3747;SDS011;1889;50.058;8.688;2023-12-20T14:02:46;2.45;;;1.35;;
3747;SDS011;1889;50.058;8.688;2023-12-20T14:05:17;3.67;;;1.70;;
3747;SDS011;1889;50.058;8.688;2023-12-20T14:07:46;5.50;;;1.70;;
3747;SDS011;1889;50.058;8.688;2023-12-20T14:10:16;5.30;;;1.90;;
3747;SDS011;1889;50.058;8.688;2023-12-20T14:12:45;7.15;;;2.15;;
3747;SDS011;1889;50.058;8.688;2023-12-20T14:15:15;3.33;;;1.77;;
3747;SDS011;1889;50.058;8.688;2023-12-20T14:17:44;4.00;;;1.50;;
3747;SDS011;1889;50.058;8.688;2023-12-20T14:20:13;2.65;;;1.05;;
3747;SDS011;1889;50.058;8.688;2023-12-20T14:22:43;4.17;;;2.02;;
3747;SDS011;1889;50.058;8.688;2023-12-20T14:25:14;2.98;;;1.55;;
3747;SDS011;1889;50.058;8.688;2023-12-20T14:27:43;3.12;;;1.50;;
3747;SDS011;1889;50.058;8.688;2023-12-20T14:30:13;5.62;;;1.47;;
3747;SDS011;1889;50.058;8.688;2023-12-20T14:32:44;3.92;;;1.30;;
3747;SDS011;1889;50.058;8.688;2023-12-20T14:35:15;3.67;;;1.62;;
3747;SDS011;1889;50.058;8.688;2023-12-20T14:37:44;6.80;;;1.55;;
3747;SDS011;1889;50.058;8.688;2023-12-20T14:40:13;5.20;;;1.42;;
3747;SDS011;1889;50.058;8.688;2023-12-20T14:42:43;4.45;;;1.70;;
3747;SDS011;1889;50.058;8.688;2023-12-20T14:45:14;3.58;;;1.52;;
3747;SDS011;1889;50.058;8.688;2023-12-20T14:47:45;3.20;;;1.20;;
3747;SDS011;1889;50.058;8.688;2023-12-20T14:50:15;6.30;;;1.27;;
3747;SDS011;1889;50.058;8.688;2023-12-20T14:52:47;4.95;;;1.57;;
3747;SDS011;1889;50.058;8.688;2023-12-20T14:55:16;3.42;;;1.32;;
3747;SDS011;1889;50.058;8.688;2023-12-20T14:57:46;4.15;;;1.65;;
3747;SDS011;1889;50.058;8.688;2023-12-20T15:00:16;4.00;;;1.50;;
3747;SDS011;1889;50.058;8.688;2023-12-20T15:02:46;2.80;;;1.35;;
3747;SDS011;1889;50.058;8.688;2023-12-20T15:05:17;1.92;;;1.37;;
3747;SDS011;1889;50.058;8.688;2023-12-20T15:07:46;3.40;;;1.02;;
3747;SDS011;1889;50.058;8.688;2023-12-20T15:10:16;2.77;;;1.12;;
3747;SDS011;1889;50.058;8.688;2023-12-20T15:12:45;3.35;;;1.17;;
3747;SDS011;1889;50.058;8.688;2023-12-20T15:15:15;4.47;;;1.45;;
3747;SDS011;1889;50.058;8.688;2023-12-20T15:17:44;3.25;;;1.07;;
3747;SDS011;1889;50.058;8.688;2023-12-20T15:20:13;3.05;;;1.30;;
3747;SDS011;1889;50.058;8.688;2023-12-20T15:22:43;2.00;;;1.10;;
3747;SDS011;1889;50.058;8.688;2023-12-20T15:25:13;6.12;;;1.50;;
3747;SDS011;1889;50.058;8.688;2023-12-20T15:27:44;1.30;;;1.07;;
3747;SDS011;1889;50.058;8.688;2023-12-20T15:30:15;2.22;;;1.12;;
3747;SDS011;1889;50.058;8.688;2023-12-20T15:32:45;1.67;;;1.15;;
3747;SDS011;1889;50.058;8.688;2023-12-20T15:35:15;4.45;;;1.30;;
3747;SDS011;1889;50.058;8.688;2023-12-20T15:37:44;4.45;;;1.12;;
3747;SDS011;1889;50.058;8.688;2023-12-20T15:40:13;3.47;;;1.17;;
3747;SDS011;1889;50.058;8.688;2023-12-20T15:42:43;5.40;;;1.32;;
3747;SDS011;1889;50.058;8.688;2023-12-20T15:45:12;3.30;;;1.37;;